Meiringen, Switzerland
Current Conditions -  °F | °C
As of 2:50 AM on Tuesday 25 Nov 2014 (Local Time) from LSMM Reporting Station
Overcast Overcast  
Wind Chill: 43°   Ceiling: 18000
Heat Index: 43°   Visibility: 6mi
Dew Point: 41°   Wind: 2mph
Humidity: 93%   Direction: NA
Pressure: 30.15"   Gusts: NA
Location:  46.73°N, 8.19°E
Report Text: LSMM 250150Z AUTO VRB02KT 9999NDV FEW120 OVC180 06/05 Q1021 RMK WHT
Loading
Personal Weather Stations






























Interactive Weather Map New forecast layout! Learn more

10-Day Weather Forecast

Advertisements
Track Severe Weather on mobile